createdAt,value
2019-02-06T00:01:05.682Z,97.30
2019-02-06T00:03:34.555Z,93.03
2019-02-06T00:06:02.934Z,95.57
2019-02-06T00:08:31.237Z,90.50
2019-02-06T00:10:59.903Z,89.83
2019-02-06T00:13:29.020Z,88.27
2019-02-06T00:15:57.385Z,87.57
2019-02-06T00:18:26.056Z,85.33
2019-02-06T00:20:54.739Z,90.50
2019-02-06T00:23:23.033Z,96.13
2019-02-06T00:25:51.409Z,115.37
2019-02-06T00:28:20.082Z,116.87
2019-02-06T00:30:48.775Z,124.87
2019-02-06T00:33:17.085Z,119.07
2019-02-06T00:35:45.413Z,130.37
2019-02-06T00:38:13.706Z,130.43
2019-02-06T00:40:42.026Z,156.97
2019-02-06T00:43:10.668Z,128.93
2019-02-06T00:45:39.245Z,138.70
2019-02-06T00:48:07.787Z,147.37
2019-02-06T00:50:36.344Z,126.37
2019-02-06T00:53:04.789Z,121.63
2019-02-06T00:55:33.094Z,118.07
2019-02-06T00:58:01.395Z,114.30
2019-02-06T01:00:30.049Z,107.47
2019-02-06T01:02:58.706Z,108.80
2019-02-06T01:05:37.862Z,111.40
2019-02-06T01:07:57.350Z,109.50
2019-02-06T01:10:25.648Z,103.73
2019-02-06T01:12:54.049Z,104.33
2019-02-06T01:15:22.409Z,93.90
2019-02-06T01:17:50.727Z,98.03
2019-02-06T01:20:19.632Z,89.87
2019-02-06T01:22:48.321Z,81.83
2019-02-06T01:25:16.981Z,93.77
2019-02-06T01:27:45.692Z,86.93
2019-02-06T01:30:21.365Z,87.03
2019-02-06T01:32:50.035Z,90.27
2019-02-06T01:35:18.738Z,80.97
2019-02-06T01:37:47.397Z,81.80
2019-02-06T01:40:18.701Z,79.63
2019-02-06T01:42:47.071Z,74.80
2019-02-06T01:45:17.869Z,78.27
2019-02-06T01:47:46.438Z,75.27
2019-02-06T01:50:16.874Z,68.40
2019-02-06T01:52:45.179Z,72.37
2019-02-06T01:55:15.170Z,74.50
2019-02-06T01:57:43.742Z,73.73
2019-02-06T02:00:23.471Z,66.80
2019-02-06T02:02:52.178Z,76.83
2019-02-06T02:05:22.180Z,74.13
2019-02-06T02:07:52.618Z,66.93
2019-02-06T02:10:21.190Z,61.30
2019-02-06T02:12:50.183Z,60.67
2019-02-06T02:15:19.398Z,59.80
2019-02-06T02:17:48.074Z,63.63
2019-02-06T02:20:18.570Z,54.37
2019-02-06T02:22:47.192Z,54.37
2019-02-06T02:25:15.549Z,54.33
2019-02-06T02:27:43.933Z,50.97
2019-02-06T02:30:15.126Z,49.30
2019-02-06T02:32:43.487Z,52.57
2019-02-06T02:35:12.074Z,52.60
2019-02-06T02:37:40.746Z,51.47
2019-02-06T02:40:11.383Z,47.93
2019-02-06T02:42:39.738Z,48.93
2019-02-06T02:45:15.513Z,47.60
2019-02-06T02:47:44.171Z,45.63
2019-02-06T02:50:12.723Z,44.40
2019-02-06T02:52:41.000Z,46.23
2019-02-06T02:55:11.167Z,40.80
2019-02-06T02:57:39.854Z,43.20
2019-02-06T03:00:15.131Z,41.87
2019-02-06T03:03:00.992Z,42.20
2019-02-06T03:05:31.521Z,40.33
2019-02-06T03:07:59.820Z,38.57
2019-02-06T03:10:28.386Z,37.93
2019-02-06T03:12:56.714Z,40.73
2019-02-06T03:15:25.438Z,37.60
2019-02-06T03:17:53.726Z,36.67
2019-02-06T03:20:22.311Z,35.43
2019-02-06T03:22:50.906Z,36.23
2019-02-06T03:25:19.206Z,33.47
2019-02-06T03:27:47.486Z,33.40
2019-02-06T03:30:17.813Z,35.20
2019-02-06T03:32:46.170Z,32.77
2019-02-06T03:35:14.575Z,31.17
2019-02-06T03:37:42.880Z,31.83
2019-02-06T03:40:14.748Z,31.03
2019-02-06T03:42:43.134Z,32.27
2019-02-06T03:45:12.978Z,27.50
2019-02-06T03:47:41.343Z,29.33
2019-02-06T03:50:19.080Z,28.70
2019-02-06T03:52:47.374Z,28.40
2019-02-06T03:55:15.730Z,27.13
2019-02-06T03:57:44.029Z,26.03
2019-02-06T04:00:19.725Z,26.80
2019-02-06T04:02:48.099Z,27.60
2019-02-06T04:05:16.679Z,25.63
2019-02-06T04:07:45.010Z,25.03
2019-02-06T04:10:17.956Z,24.80
2019-02-06T04:12:46.518Z,25.40
2019-02-06T04:15:15.518Z,24.43
2019-02-06T04:17:43.803Z,25.03
2019-02-06T04:20:13.844Z,23.93
2019-02-06T04:22:42.395Z,23.10
2019-02-06T04:25:12.152Z,23.17
2019-02-06T04:27:40.505Z,22.67
2019-02-06T04:30:15.418Z,22.37
2019-02-06T04:32:43.698Z,21.43
2019-02-06T04:35:13.500Z,23.13
2019-02-06T04:37:41.792Z,22.27
2019-02-06T04:40:12.934Z,22.30
2019-02-06T04:42:41.213Z,21.57
2019-02-06T04:45:11.725Z,20.80
2019-02-06T04:47:40.515Z,23.50
2019-02-06T04:50:11.486Z,27.60
2019-02-06T04:52:39.764Z,31.17
2019-02-06T04:55:10.600Z,28.57
2019-02-06T04:57:38.885Z,29.73
2019-02-06T05:00:22.829Z,29.43
2019-02-06T05:02:51.474Z,27.43
2019-02-06T05:05:19.760Z,26.07
2019-02-06T05:07:48.067Z,29.03
2019-02-06T05:10:16.509Z,35.47
2019-02-06T05:12:45.291Z,36.50
2019-02-06T05:15:15.302Z,39.60
2019-02-06T05:17:43.637Z,31.90
2019-02-06T05:20:20.939Z,37.97
2019-02-06T05:22:49.249Z,34.43
2019-02-06T05:25:17.533Z,32.27
2019-02-06T05:27:46.631Z,31.90
2019-02-06T05:30:15.218Z,31.27
2019-02-06T05:32:43.808Z,32.40
2019-02-06T05:35:12.166Z,32.00
2019-02-06T05:37:40.871Z,29.40
2019-02-06T05:40:11.107Z,29.03
2019-02-06T05:42:39.922Z,28.97
2019-02-06T05:45:10.503Z,29.30
2019-02-06T05:47:39.197Z,26.93
2019-02-06T05:50:11.066Z,27.80
2019-02-06T05:52:39.638Z,28.23
2019-02-06T05:55:08.220Z,26.97
2019-02-06T05:57:36.905Z,26.73
2019-02-06T06:00:22.798Z,25.27
2019-02-06T06:02:51.156Z,25.50
2019-02-06T06:05:19.467Z,25.23
2019-02-06T06:07:47.773Z,24.27
2019-02-06T06:10:17.818Z,25.60
2019-02-06T06:12:46.370Z,23.40
2019-02-06T06:15:16.914Z,23.67
2019-02-06T06:17:45.208Z,22.97
2019-02-06T06:20:21.154Z,22.60
2019-02-06T06:22:49.746Z,22.03
2019-02-06T06:25:19.822Z,22.47
2019-02-06T06:27:48.487Z,22.43
2019-02-06T06:30:19.371Z,22.40
2019-02-06T06:32:47.678Z,21.67
2019-02-06T06:35:16.039Z,23.50
2019-02-06T06:37:57.175Z,21.30
2019-02-06T06:40:22.623Z,21.33
2019-02-06T06:42:51.449Z,21.30
2019-02-06T06:45:22.128Z,20.20
2019-02-06T06:47:50.503Z,20.37
2019-02-06T06:50:21.306Z,20.00
2019-02-06T06:52:49.874Z,19.03
2019-02-06T06:55:18.250Z,20.40
2019-02-06T06:57:46.554Z,19.80
2019-02-06T07:00:26.248Z,19.47
2019-02-06T07:02:54.869Z,19.20
2019-02-06T07:05:23.162Z,18.67
2019-02-06T07:07:51.614Z,19.20
2019-02-06T07:10:20.394Z,19.37
2019-02-06T07:12:48.682Z,17.83
2019-02-06T07:15:20.039Z,18.60
2019-02-06T07:17:48.624Z,18.20
2019-02-06T07:20:18.459Z,16.70
2019-02-06T07:22:46.813Z,17.10
2019-02-06T07:25:17.427Z,16.17
2019-02-06T07:27:46.032Z,16.20
2019-02-06T07:30:26.474Z,16.20
2019-02-06T07:32:55.091Z,14.80
2019-02-06T07:35:23.674Z,15.50
2019-02-06T07:37:51.979Z,15.23
2019-02-06T07:40:20.499Z,15.30
2019-02-06T07:42:49.203Z,15.50
2019-02-06T07:45:18.917Z,15.27
2019-02-06T07:47:47.194Z,13.77
2019-02-06T07:50:21.207Z,14.43
2019-02-06T07:52:49.784Z,13.57
2019-02-06T07:55:18.446Z,14.53
2019-02-06T07:57:46.749Z,15.07
2019-02-06T08:00:15.121Z,13.73
2019-02-06T08:02:43.493Z,13.97
2019-02-06T08:05:15.173Z,14.63
2019-02-06T08:07:43.479Z,13.50
2019-02-06T08:10:18.152Z,13.93
2019-02-06T08:12:46.438Z,12.77
2019-02-06T08:15:17.222Z,13.07
2019-02-06T08:17:45.513Z,13.20
2019-02-06T08:20:16.453Z,11.93
2019-02-06T08:22:45.087Z,12.53
2019-02-06T08:25:16.003Z,12.10
2019-02-06T08:27:44.341Z,11.50
2019-02-06T08:30:18.638Z,11.83
2019-02-06T08:32:46.947Z,12.40
2019-02-06T08:35:15.404Z,11.20
2019-02-06T08:37:44.167Z,10.93
2019-02-06T08:40:15.490Z,11.13
2019-02-06T08:42:43.808Z,11.57
2019-02-06T08:45:14.649Z,10.90
2019-02-06T08:47:43.018Z,10.70
2019-02-06T08:50:17.190Z,11.00
2019-02-06T08:52:45.866Z,11.53
2019-02-06T08:55:17.066Z,11.60
2019-02-06T08:57:45.643Z,11.93
2019-02-06T09:00:20.162Z,25.63
2019-02-06T09:02:48.462Z,62.47
2019-02-06T09:05:17.013Z,43.60
2019-02-06T09:07:45.884Z,52.53
2019-02-06T09:10:20.638Z,50.27
2019-02-06T09:12:49.023Z,48.10
2019-02-06T09:15:17.344Z,47.80
2019-02-06T09:17:45.700Z,45.20
2019-02-06T09:20:17.039Z,43.30
2019-02-06T09:22:46.022Z,51.73
2019-02-06T09:25:17.190Z,58.17
2019-02-06T09:27:45.743Z,64.33
2019-02-06T09:30:17.259Z,53.20
2019-02-06T09:32:45.538Z,52.53
2019-02-06T09:35:13.828Z,49.93
2019-02-06T09:37:42.443Z,48.73
2019-02-06T09:40:16.259Z,48.33
2019-02-06T09:42:44.547Z,55.73
2019-02-06T09:45:14.250Z,54.50
2019-02-06T09:47:42.594Z,51.27
2019-02-06T09:50:19.853Z,53.70
2019-02-06T09:52:48.470Z,53.47
2019-02-06T09:55:16.770Z,50.70
2019-02-06T09:57:45.337Z,49.27
2019-02-06T10:00:34.370Z,50.83
2019-02-06T10:03:03.052Z,52.53
2019-02-06T10:05:31.401Z,52.40
2019-02-06T10:08:00.050Z,49.93
2019-02-06T10:10:28.671Z,49.87
2019-02-06T10:12:57.044Z,47.37
2019-02-06T10:15:28.970Z,47.20
2019-02-06T10:17:57.610Z,52.50
2019-02-06T10:20:32.193Z,52.57
2019-02-06T10:23:00.551Z,49.10
2019-02-06T10:25:28.927Z,49.07
2019-02-06T10:27:57.521Z,47.97
2019-02-06T10:30:29.084Z,47.60
2019-02-06T10:32:57.859Z,46.63
2019-02-06T10:35:26.210Z,48.70
2019-02-06T10:37:54.835Z,49.60
2019-02-06T10:40:23.422Z,47.53
2019-02-06T10:42:52.007Z,51.67
2019-02-06T10:45:21.239Z,52.60
2019-02-06T10:47:49.730Z,50.93
2019-02-06T10:50:35.768Z,49.33
2019-02-06T10:53:04.152Z,46.93
2019-02-06T10:55:32.520Z,45.97
2019-02-06T10:58:00.879Z,43.53
2019-02-06T11:00:35.120Z,44.30
2019-02-06T11:03:03.706Z,42.13
2019-02-06T11:05:32.393Z,41.20
2019-02-06T11:08:00.765Z,40.40
2019-02-06T11:10:29.426Z,37.93
2019-02-06T11:12:57.735Z,37.50
2019-02-06T11:15:26.364Z,37.73
2019-02-06T11:17:55.207Z,36.37
2019-02-06T11:20:32.076Z,33.83
2019-02-06T11:23:00.666Z,35.73
2019-02-06T11:25:28.962Z,36.70
2019-02-06T11:27:57.530Z,39.87
2019-02-06T11:30:31.674Z,40.77
2019-02-06T11:33:00.332Z,39.20
2019-02-06T11:35:28.634Z,37.47
2019-02-06T11:37:56.931Z,35.60
2019-02-06T11:40:26.079Z,36.47
2019-02-06T11:42:54.553Z,38.33
2019-02-06T11:45:28.784Z,45.03
2019-02-06T11:47:57.479Z,45.67
2019-02-06T11:50:42.632Z,44.23
2019-02-06T11:53:13.406Z,43.07
2019-02-06T11:55:41.960Z,41.97
2019-02-06T11:58:10.514Z,41.47
2019-02-06T12:00:48.241Z,38.57
2019-02-06T12:03:15.272Z,36.83
2019-02-06T12:05:43.582Z,36.77
2019-02-06T12:08:12.800Z,35.37
2019-02-06T12:10:41.550Z,35.13
2019-02-06T12:13:10.236Z,34.53
2019-02-06T12:15:38.539Z,35.90
2019-02-06T12:18:07.173Z,33.80
2019-02-06T12:20:36.287Z,33.30
2019-02-06T12:23:04.953Z,34.53
2019-02-06T12:25:34.570Z,32.87
2019-02-06T12:28:05.192Z,33.17
2019-02-06T12:30:41.170Z,32.87
2019-02-06T12:33:09.752Z,31.70
2019-02-06T12:35:38.343Z,32.47
2019-02-06T12:38:06.932Z,30.97
2019-02-06T12:40:35.606Z,30.43
2019-02-06T12:43:05.783Z,33.87
2019-02-06T12:45:34.444Z,37.17
2019-02-06T12:48:02.803Z,39.17
2019-02-06T12:50:31.376Z,38.80
2019-02-06T12:52:59.969Z,38.07
2019-02-06T12:55:42.072Z,37.10
2019-02-06T12:58:10.649Z,36.90
2019-02-06T13:00:43.933Z,35.80
2019-02-06T13:03:13.819Z,34.83
2019-02-06T13:05:42.447Z,33.07
2019-02-06T13:08:11.119Z,32.50
2019-02-06T13:10:39.714Z,32.37
2019-02-06T13:13:08.392Z,31.13
2019-02-06T13:15:37.062Z,29.83
2019-02-06T13:18:05.381Z,30.10
2019-02-06T13:20:35.652Z,30.23
2019-02-06T13:23:05.313Z,30.17
2019-02-06T13:25:33.611Z,35.40
2019-02-06T13:28:02.252Z,36.60
2019-02-06T13:30:34.827Z,38.33
2019-02-06T13:33:03.417Z,40.43
2019-02-06T13:35:31.993Z,38.30
2019-02-06T13:38:00.283Z,38.23
2019-02-06T13:40:29.406Z,37.77
2019-02-06T13:42:58.667Z,35.10
2019-02-06T13:45:36.475Z,33.23
2019-02-06T13:48:05.298Z,33.20
2019-02-06T13:50:33.940Z,32.87
2019-02-06T13:53:02.237Z,30.93
2019-02-06T13:55:30.519Z,31.50
2019-02-06T13:57:59.082Z,31.67
2019-02-06T14:00:32.983Z,34.83
2019-02-06T14:03:01.291Z,32.93
2019-02-06T14:05:31.283Z,37.27
2019-02-06T14:08:01.819Z,38.30
2019-02-06T14:10:31.811Z,38.13
2019-02-06T14:13:00.488Z,37.30
2019-02-06T14:15:31.638Z,37.07
2019-02-06T14:17:59.957Z,36.30
2019-02-06T14:20:28.823Z,33.43
2019-02-06T14:23:06.419Z,34.33
2019-02-06T14:25:38.378Z,32.40
2019-02-06T14:28:09.927Z,36.93
2019-02-06T14:30:56.768Z,33.37
2019-02-06T14:33:43.412Z,35.37
2019-02-06T14:36:30.199Z,35.73
2019-02-06T14:39:05.279Z,34.77
2019-02-06T14:41:40.249Z,33.63
2019-02-06T14:44:14.587Z,31.77
2019-02-06T14:46:55.423Z,32.03
2019-02-06T14:49:36.115Z,30.43
2019-02-06T14:52:33.534Z,29.27
2019-02-06T14:55:23.539Z,28.33
2019-02-06T14:58:25.446Z,27.10
2019-02-06T15:01:00.685Z,27.47
2019-02-06T15:03:33.494Z,25.17
2019-02-06T15:06:14.394Z,25.20
2019-02-06T15:08:58.137Z,25.70
2019-02-06T15:11:29.842Z,29.13
2019-02-06T15:14:07.488Z,27.53
2019-02-06T15:16:41.527Z,25.63
2019-02-06T15:19:28.133Z,33.67
2019-02-06T15:22:20.742Z,30.57
2019-02-06T15:25:17.696Z,29.30
2019-02-06T15:27:55.092Z,28.00
2019-02-06T15:30:47.594Z,27.37
2019-02-06T15:33:46.646Z,26.20
2019-02-06T15:36:27.626Z,26.10
2019-02-06T15:39:11.118Z,25.00
2019-02-06T15:42:00.732Z,24.27
2019-02-06T15:44:35.247Z,24.10
2019-02-06T15:47:14.475Z,23.23
2019-02-06T15:50:00.941Z,22.93
2019-02-06T15:52:51.193Z,22.60
2019-02-06T15:55:41.076Z,25.60
2019-02-06T15:58:21.186Z,29.47
2019-02-06T16:01:17.235Z,35.10
2019-02-06T16:04:09.559Z,33.30
2019-02-06T16:06:53.823Z,31.13
2019-02-06T16:09:47.395Z,30.23
2019-02-06T16:12:19.406Z,29.17
2019-02-06T16:15:02.798Z,27.47
2019-02-06T16:17:37.242Z,26.97
2019-02-06T16:20:09.170Z,26.23
2019-02-06T16:22:52.832Z,25.30
2019-02-06T16:25:51.703Z,24.83
2019-02-06T16:28:32.115Z,24.13
2019-02-06T16:31:24.634Z,23.93
2019-02-06T16:33:59.202Z,22.90
2019-02-06T16:36:52.331Z,21.60
2019-02-06T16:39:35.698Z,22.10
2019-02-06T16:42:30.023Z,21.47
2019-02-06T16:45:16.815Z,23.97
2019-02-06T16:48:02.990Z,28.83
2019-02-06T16:50:52.643Z,27.77
2019-02-06T16:53:33.042Z,27.77
2019-02-06T16:56:22.627Z,26.60
2019-02-06T16:58:54.485Z,26.13
2019-02-06T17:01:50.698Z,24.67
2019-02-06T17:04:28.700Z,23.13
2019-02-06T17:07:20.710Z,23.93
2019-02-06T17:09:57.627Z,20.70
2019-02-06T17:12:37.871Z,44.17
2019-02-06T17:15:09.794Z,64.43
2019-02-06T17:17:44.611Z,74.70
2019-02-06T17:20:42.222Z,73.23
2019-02-06T17:23:37.422Z,65.90
2019-02-06T17:26:27.316Z,62.73
2019-02-06T17:29:02.146Z,59.77
2019-02-06T17:31:48.843Z,56.23
2019-02-06T17:34:32.595Z,54.20
2019-02-06T17:37:29.761Z,54.60
2019-02-06T17:40:31.535Z,50.70
2019-02-06T17:43:11.338Z,48.67
2019-02-06T17:45:51.687Z,46.33
2019-02-06T17:48:26.033Z,43.40
2019-02-06T17:51:06.904Z,43.43
2019-02-06T17:53:50.347Z,45.13
2019-02-06T17:56:18.635Z,73.50
2019-02-06T17:58:47.198Z,77.93
2019-02-06T18:01:19.371Z,87.17
2019-02-06T18:03:48.732Z,85.57
2019-02-06T18:06:17.251Z,78.67
2019-02-06T18:08:56.109Z,76.23
2019-02-06T18:11:15.860Z,74.57
2019-02-06T18:13:44.437Z,83.23
2019-02-06T18:16:21.142Z,85.70
2019-02-06T18:18:42.763Z,87.83
2019-02-06T18:21:11.652Z,85.37
2019-02-06T18:23:39.964Z,81.43
2019-02-06T18:26:08.434Z,78.93
2019-02-06T18:28:38.502Z,77.53
2019-02-06T18:31:07.590Z,98.07
2019-02-06T18:33:36.067Z,82.83
2019-02-06T18:36:04.939Z,83.30
2019-02-06T18:38:33.382Z,83.00
2019-02-06T18:41:02.060Z,80.83
2019-02-06T18:43:30.742Z,98.73
2019-02-06T18:45:59.147Z,82.70
2019-02-06T18:48:28.086Z,79.17
2019-02-06T18:50:56.839Z,81.23
2019-02-06T18:53:25.570Z,111.30
2019-02-06T18:55:54.250Z,105.67
2019-02-06T18:58:23.044Z,96.73
2019-02-06T19:00:51.447Z,97.03
2019-02-06T19:03:23.518Z,93.90
2019-02-06T19:05:53.806Z,90.43
2019-02-06T19:08:22.233Z,86.83
2019-02-06T19:10:50.895Z,84.20
2019-02-06T19:13:19.666Z,82.90
2019-02-06T19:15:56.181Z,76.90
2019-02-06T19:18:18.385Z,74.73
2019-02-06T19:20:46.803Z,72.43
2019-02-06T19:23:15.428Z,68.77
2019-02-06T19:25:43.793Z,68.07
2019-02-06T19:28:12.795Z,64.77
2019-02-06T19:30:43.494Z,66.37
2019-02-06T19:33:11.886Z,75.13
2019-02-06T19:35:40.605Z,78.43
2019-02-06T19:38:08.966Z,84.30
2019-02-06T19:40:37.347Z,89.23
2019-02-06T19:43:05.707Z,88.80
2019-02-06T19:45:34.726Z,88.07
2019-02-06T19:48:03.019Z,83.60
2019-02-06T19:50:42.037Z,81.50
2019-02-06T19:53:10.723Z,77.30
2019-02-06T19:55:39.119Z,74.03
2019-02-06T19:58:08.810Z,81.77
2019-02-06T20:00:37.597Z,75.63
2019-02-06T20:03:08.194Z,96.63
2019-02-06T20:05:36.790Z,88.33
2019-02-06T20:08:06.450Z,75.17
2019-02-06T20:10:37.457Z,75.87
2019-02-06T20:13:12.278Z,73.83
2019-02-06T20:15:36.171Z,67.13
2019-02-06T20:18:04.849Z,98.67
2019-02-06T20:20:33.843Z,88.53
2019-02-06T20:23:02.477Z,100.43
2019-02-06T20:25:31.227Z,88.77
2019-02-06T20:27:59.910Z,83.27
2019-02-06T20:30:32.766Z,84.17
2019-02-06T20:33:01.512Z,84.53
2019-02-06T20:35:30.189Z,82.87
2019-02-06T20:37:58.837Z,77.90
2019-02-06T20:40:36.145Z,84.43
2019-02-06T20:43:05.228Z,110.37
2019-02-06T20:45:33.626Z,114.50
2019-02-06T20:48:02.200Z,98.20
2019-02-06T20:50:33.436Z,91.90
2019-02-06T20:53:02.443Z,88.50
2019-02-06T20:55:31.119Z,87.17
2019-02-06T20:57:59.507Z,82.57
2019-02-06T21:00:30.572Z,77.77
2019-02-06T21:02:58.897Z,77.30
2019-02-06T21:05:27.606Z,76.63
2019-02-06T21:07:56.290Z,74.00
2019-02-06T21:10:35.026Z,78.30
2019-02-06T21:13:03.696Z,82.17
2019-02-06T21:15:32.954Z,79.10
2019-02-06T21:18:01.553Z,76.20
2019-02-06T21:20:30.084Z,72.57
2019-02-06T21:22:59.074Z,72.10
2019-02-06T21:25:27.500Z,66.90
2019-02-06T21:27:56.218Z,64.87
2019-02-06T21:30:33.743Z,60.83
2019-02-06T21:33:02.043Z,73.30
2019-02-06T21:35:30.403Z,75.80
2019-02-06T21:37:59.198Z,81.23
2019-02-06T21:40:29.687Z,82.33
2019-02-06T21:42:58.275Z,77.27
2019-02-06T21:45:26.850Z,74.43
2019-02-06T21:47:55.539Z,72.97
2019-02-06T21:50:25.149Z,66.47
2019-02-06T21:52:53.827Z,67.47
2019-02-06T21:55:27.098Z,66.30
2019-02-06T21:57:55.732Z,62.33
2019-02-06T22:00:29.789Z,62.67
2019-02-06T22:02:58.419Z,61.80
2019-02-06T22:05:26.817Z,60.23
2019-02-06T22:07:55.202Z,55.40
2019-02-06T22:10:24.071Z,53.97
2019-02-06T22:12:52.639Z,52.73
2019-02-06T22:15:29.102Z,56.47
2019-02-06T22:17:57.384Z,56.10
2019-02-06T22:20:26.174Z,52.03
2019-02-06T22:22:54.524Z,54.90
2019-02-06T22:25:23.196Z,54.27
2019-02-06T22:27:51.826Z,77.67
2019-02-06T22:30:25.937Z,73.77
2019-02-06T22:32:54.582Z,70.80
2019-02-06T22:35:23.407Z,63.27
2019-02-06T22:37:51.994Z,58.63
2019-02-06T22:40:24.694Z,59.47
2019-02-06T22:42:52.982Z,57.40
2019-02-06T22:45:26.338Z,54.43
2019-02-06T22:47:54.887Z,58.90
2019-02-06T22:50:24.881Z,65.23
2019-02-06T22:52:53.266Z,76.10
2019-02-06T22:55:22.016Z,98.47
2019-02-06T22:57:50.313Z,109.30
2019-02-06T23:00:53.359Z,99.53
2019-02-06T23:03:29.951Z,91.43
2019-02-06T23:05:58.273Z,88.00
2019-02-06T23:08:26.926Z,103.20
2019-02-06T23:10:55.394Z,96.50
2019-02-06T23:13:23.777Z,96.90
2019-02-06T23:15:52.356Z,99.27
2019-02-06T23:18:20.682Z,97.57
2019-02-06T23:20:49.322Z,92.80
2019-02-06T23:23:17.634Z,92.37
2019-02-06T23:25:45.924Z,88.83
2019-02-06T23:28:14.513Z,88.00
2019-02-06T23:30:42.801Z,90.10
2019-02-06T23:33:11.160Z,87.33
2019-02-06T23:35:41.543Z,84.43
2019-02-06T23:38:10.020Z,83.40
2019-02-06T23:40:38.315Z,83.80
2019-02-06T23:43:07.185Z,81.13
2019-02-06T23:45:35.770Z,81.20
2019-02-06T23:48:04.200Z,76.43
2019-02-06T23:50:32.514Z,71.90
2019-02-06T23:53:00.793Z,69.13
2019-02-06T23:55:29.090Z,71.67
2019-02-06T23:57:57.670Z,73.83
